Flight Track Log - Related Links

Times and Time Zones

All times are in EDT time to prevent confusion due to time zone crossing. See the AAL297 flight status page for this flight to view local times or setup timezone preferences in your user account.

Time Position Orientation Groundspeed Altitude Reporting Facility
EDT Latitude Longitude Course Direction KTS MPH feet Rate Location/Type
Sun 07:41:32 PM 33.9510 -118.4530 262° West 165 190 1,500  Level FlightAware ADS-B
Sun 07:41:57 PM 33.9490 -118.4760 264° West 193 222 2,100 1,309 Climbing FlightAware ADS-B
Sun 07:42:27 PM 33.9460 -118.5080 264° West 229 264 2,700 1,350 Climbing FlightAware ADS-B
Sun 07:42:37 PM 33.9450 -118.5210 265° West 237 273 3,000 1,650 Climbing FlightAware ADS-B
Sun 07:43:07 PM 33.9400 -118.5620 262° West 269 310 3,800 2,133 Climbing FlightAware ADS-B
Sun 07:43:22 PM 33.9380 -118.5860 264° West 268 308 4,600 2,400 Climbing FlightAware ADS-B
Sun 07:43:52 PM 33.9320 -118.6280 260° West 279 321 5,600 2,040 Climbing FlightAware ADS-B
Sun 07:44:12 PM 33.9270 -118.6550 257° West 278 320 6,300 2,291 Climbing FlightAware ADS-B
Sun 07:44:47 PM 33.9160 -118.7130 257° West 284 327 7,700 2,300 Climbing FlightAware ADS-B
Sun 07:45:12 PM 33.9120 -118.7490 262° West 284 327 8,600 2,040 Climbing FlightAware ADS-B
Sun 07:45:37 PM 33.9100 -118.7880 266° West 288 331 9,400 2,057 Climbing FlightAware ADS-B
Sun 07:46:22 PM 33.9020 -118.8800 264° West 310 357 11,000 1,600 Climbing FlightAware ADS-B
Sun 07:47:07 PM 33.8940 -118.9720 264° West 348 400 11,800 1,341 Climbing FlightAware ADS-B
Sun 07:47:47 PM 33.8860 -119.0450 262° West 355 409 12,900 1,800 Climbing FlightAware ADS-B
Sun 07:48:27 PM 33.8780 -119.1270 263° West 361 415 14,200 1,326 Climbing FlightAware ADS-B
Sun 07:49:22 PM 33.8690 -119.2260 264° West 361 415 15,000 2,067 Climbing FlightAware ADS-B
Sun 07:49:57 PM 33.8600 -119.3090 263° West 373 429 17,300 2,733 Climbing FlightAware ADS-B
Sun 07:50:52 PM 33.8480 -119.4230 263° West 386 444 19,100 1,400 Climbing FlightAware ADS-B
Sun 07:51:27 PM 33.8400 -119.4920 262° West 389 448 19,400 2,057 Climbing FlightAware ADS-B
Sun 07:52:02 PM 33.8320 -119.5780 264° West 399 459 21,500 1,400 Climbing FlightAware ADS-B
Sun 07:52:57 PM 33.8200 -119.6800 262° West 399 459 21,500  Level FlightAware ADS-B
Sun 07:53:37 PM 33.8120 -119.7550 263° West 399 459 21,500  Level FlightAware ADS-B
Sun 07:54:17 PM 33.8030 -119.8300 262° West 399 459 21,500 3,529 Level FlightAware ADS-B
Sun 07:55:02 PM 33.7900 -119.9770 264° West 420 483 26,500 4,425 Climbing FlightAware ADS-B
Sun 07:55:37 PM 33.7810 -120.0620 263° West 425 489 27,400 1,482 Climbing FlightAware ADS-B
Sun 07:56:27 PM 33.7680 -120.1860 263° West 431 496 28,600 1,333 Climbing FlightAware ADS-B
Sun 07:57:07 PM 33.7570 -120.2810 262° West 436 502 29,400 1,341 Climbing FlightAware ADS-B
Sun 07:57:52 PM 33.7460 -120.3840 263° West 435 501 30,500 -50 Climbing FlightAware ADS-B
Sun 08:00:00 PM 33.7008 -120.6692 262° West  Level FlightAware Approximate
Sun 08:01:00 PM 33.6849 -120.8035 262° West  Level FlightAware Approximate
Sun 08:02:00 PM 33.6684 -120.9376 262° West  Level FlightAware Approximate
Sun 08:03:00 PM 33.6516 -121.0717 262° West  Level FlightAware Approximate
Sun 08:04:00 PM 33.6347 -121.2058 261° West  Level FlightAware Approximate
Sun 08:05:00 PM 33.6189 -121.3400 262° West  Level FlightAware Approximate
Sun 08:06:00 PM 33.6031 -121.4742 262° West  Level FlightAware Approximate
Sun 08:07:00 PM 33.5872 -121.6083 262° West  Level FlightAware Approximate
Sun 08:08:00 PM 33.5711 -121.7424 262° West  Level FlightAware Approximate
Sun 08:09:00 PM 33.5548 -121.8764 262° West  Level FlightAware Approximate
Sun 08:10:00 PM 33.5384 -122.0104 262° West  Level FlightAware Approximate
Sun 08:11:00 PM 33.5219 -122.1444 262° West  Level FlightAware Approximate
Sun 08:12:00 PM 33.5052 -122.2783 262° West  Level FlightAware Approximate
Sun 08:13:00 PM 33.4884 -122.4121 261° West  Level FlightAware Approximate
Sun 08:14:00 PM 33.4714 -122.5459 261° West  Level FlightAware Approximate
Sun 08:15:00 PM 33.4479 -122.6777 257° West  Level FlightAware Approximate
Sun 08:16:00 PM 33.4217 -122.8088 257° West  Level FlightAware Approximate
Sun 08:17:00 PM 33.3953 -122.9398 256° West  Level FlightAware Approximate
Sun 08:18:00 PM 33.3688 -123.0708 256° West  Level FlightAware Approximate
Sun 08:19:00 PM 33.3421 -123.2017 256° West  Level FlightAware Approximate
Sun 08:20:00 PM 33.3154 -123.3325 256° West  Level FlightAware Approximate
Sun 08:21:00 PM 33.2884 -123.4632 256° West  Level FlightAware Approximate
Sun 08:22:00 PM 33.2614 -123.5939 256° West  Level FlightAware Approximate
Sun 08:23:00 PM 33.2342 -123.7244 256° West  Level FlightAware Approximate
Sun 08:24:00 PM 33.2069 -123.8549 256° West  Level FlightAware Approximate
Sun 08:25:00 PM 33.1794 -123.9853 256° West  Level FlightAware Approximate
Sun 08:26:00 PM 33.1516 -124.1156 256° West  Level FlightAware Approximate
Sun 08:27:00 PM 33.1238 -124.2458 256° West  Level FlightAware Approximate
Sun 08:28:00 PM 33.0957 -124.3759 256° West  Level FlightAware Approximate
Sun 08:29:00 PM 33.0667 -124.5028 270° West  Level FlightAware Approximate
Sun 08:30:00 PM 33.0407 -124.6330 255° West  Level FlightAware Approximate
Sun 08:31:00 PM 33.0116 -124.7626 255° West  Level FlightAware Approximate
Sun 08:32:00 PM 32.9823 -124.8922 255° West  Level FlightAware Approximate
Sun 08:33:00 PM 32.9529 -125.0217 255° West  Level FlightAware Approximate
Sun 08:34:00 PM 32.9234 -125.1510 255° West  Level FlightAware Approximate
Sun 08:35:00 PM 32.8937 -125.2803 255° West  Level FlightAware Approximate
Sun 08:36:00 PM 32.8639 -125.4096 255° West  Level FlightAware Approximate
Sun 08:37:00 PM 32.8340 -125.5387 255° West  Level FlightAware Approximate
Sun 08:38:00 PM 32.8040 -125.6677 255° West  Level FlightAware Approximate
Sun 08:39:00 PM 32.7738 -125.7967 254° West  Level FlightAware Approximate
Sun 08:40:00 PM 32.7435 -125.9255 254° West  Level FlightAware Approximate
Sun 08:41:00 PM 32.7130 -126.0543 254° West  Level FlightAware Approximate
Sun 08:42:00 PM 32.6824 -126.1830 254° West  Level FlightAware Approximate
Sun 08:43:00 PM 32.6517 -126.3116 254° West  Level FlightAware Approximate
Sun 08:44:00 PM 32.6209 -126.4401 254° West  Level FlightAware Approximate
Sun 08:45:00 PM 32.5899 -126.5685 254° West  Level FlightAware Approximate
Sun 08:46:00 PM 32.5588 -126.6968 254° West  Level FlightAware Approximate
Sun 08:47:00 PM 32.5276 -126.8251 254° West  Level FlightAware Approximate
Sun 08:48:00 PM 32.4962 -126.9532 254° West  Level FlightAware Approximate
Sun 08:49:00 PM 32.4647 -127.0813 254° West  Level FlightAware Approximate
Sun 08:50:00 PM 32.4331 -127.2092 254° West  Level FlightAware Approximate
Sun 08:51:00 PM 32.4014 -127.3371 254° West  Level FlightAware Approximate
Sun 08:52:00 PM 32.3695 -127.4649 254° West  Level FlightAware Approximate
Sun 08:53:00 PM 32.3375 -127.5926 254° West  Level FlightAware Approximate
Sun 08:54:00 PM 32.3054 -127.7202 253° West  Level FlightAware Approximate
Sun 08:55:00 PM 32.2731 -127.8477 253° West  Level FlightAware Approximate
Sun 08:56:00 PM 32.2407 -127.9752 253° West  Level FlightAware Approximate
Sun 08:57:00 PM 32.2082 -128.1025 253° West  Level FlightAware Approximate
Sun 08:58:00 PM 32.1755 -128.2298 253° West  Level FlightAware Approximate
Sun 08:59:00 PM 32.1427 -128.3569 253° West  Level FlightAware Approximate
Sun 09:00:00 PM 32.1098 -128.4840 253° West  Level FlightAware Approximate
Sun 09:01:00 PM 32.0768 -128.6109 253° West  Level FlightAware Approximate
Sun 09:02:00 PM 32.0436 -128.7378 253° West  Level FlightAware Approximate
Sun 09:03:00 PM 32.0104 -128.8646 253° West  Level FlightAware Approximate
Sun 09:04:00 PM 31.9769 -128.9913 253° West  Level FlightAware Approximate
Sun 09:05:00 PM 31.9434 -129.1179 253° West  Level FlightAware Approximate
Sun 09:06:00 PM 31.9097 -129.2444 253° West  Level FlightAware Approximate
Sun 09:07:00 PM 31.8760 -129.3708 253° West  Level FlightAware Approximate
Sun 09:08:00 PM 31.8421 -129.4972 252° West  Level FlightAware Approximate
Sun 09:09:00 PM 31.8080 -129.6234 252° West  Level FlightAware Approximate
Sun 09:10:00 PM 31.7738 -129.7496 252° West  Level FlightAware Approximate
Sun 09:11:00 PM 31.7396 -129.8756 252° West  Level FlightAware Approximate
Sun 09:12:00 PM 31.7052 -130.0016 252° West  Level FlightAware Approximate
Sun 09:13:00 PM 31.6706 -130.1274 252° West  Level FlightAware Approximate
Sun 09:14:00 PM 31.6360 -130.2532 252° West  Level FlightAware Approximate
Sun 09:15:00 PM 31.6012 -130.3788 252° West  Level FlightAware Approximate
Sun 09:16:00 PM 31.5663 -130.5044 252° West  Level FlightAware Approximate
Sun 09:17:00 PM 31.5312 -130.6299 252° West  Level FlightAware Approximate
Sun 09:18:00 PM 31.4961 -130.7553 252° West  Level FlightAware Approximate
Sun 09:19:00 PM 31.4608 -130.8806 252° West  Level FlightAware Approximate
Sun 09:20:00 PM 31.4254 -131.0058 252° West  Level FlightAware Approximate
Sun 09:21:00 PM 31.3899 -131.1309 252° West  Level FlightAware Approximate
Sun 09:22:00 PM 31.3543 -131.2559 252° West  Level FlightAware Approximate
Sun 09:23:00 PM 31.3185 -131.3808 252° West  Level FlightAware Approximate
Sun 09:24:00 PM 31.2826 -131.5056 251° West  Level FlightAware Approximate
Sun 09:25:00 PM 31.2467 -131.6304 251° West  Level FlightAware Approximate
Sun 09:26:00 PM 31.2105 -131.7550 251° West  Level FlightAware Approximate
Sun 09:27:00 PM 31.1743 -131.8795 251° West  Level FlightAware Approximate
Sun 09:28:00 PM 31.1379 -132.0040 251° West  Level FlightAware Approximate
Sun 09:29:00 PM 31.1015 -132.1283 251° West  Level FlightAware Approximate
Sun 09:30:00 PM 31.0648 -132.2525 251° West  Level FlightAware Approximate
Sun 09:31:00 PM 31.0281 -132.3767 251° West  Level FlightAware Approximate
Sun 09:32:00 PM 30.9912 -132.5007 251° West  Level FlightAware Approximate
Sun 09:33:00 PM 30.9542 -132.6247 251° West  Level FlightAware Approximate
Sun 09:34:00 PM 30.9171 -132.7485 251° West  Level FlightAware Approximate
Sun 09:35:00 PM 30.8799 -132.8723 251° West  Level FlightAware Approximate
Sun 09:36:00 PM 30.8426 -132.9959 251° West  Level FlightAware Approximate
Sun 09:37:00 PM 30.8051 -133.1195 251° West  Level FlightAware Approximate
Sun 09:38:00 PM 30.7675 -133.2430 251° West  Level FlightAware Approximate
Sun 09:39:00 PM 30.7299 -133.3663 250° West  Level FlightAware Approximate
Sun 09:40:00 PM 30.6921 -133.4896 250° West  Level FlightAware Approximate
Sun 09:41:00 PM 30.6541 -133.6128 250° West  Level FlightAware Approximate
Sun 09:42:00 PM 30.6161 -133.7359 250° West  Level FlightAware Approximate
Sun 09:43:00 PM 30.5779 -133.8589 250° West  Level FlightAware Approximate
Sun 09:44:00 PM 30.5397 -133.9817 250° West  Level FlightAware Approximate
Sun 09:45:00 PM 30.5013 -134.1045 250° West  Level FlightAware Approximate
Sun 09:46:00 PM 30.4628 -134.2272 250° West  Level FlightAware Approximate
Sun 09:47:00 PM 30.4242 -134.3498 250° West  Level FlightAware Approximate
Sun 09:48:00 PM 30.3854 -134.4723 250° West  Level FlightAware Approximate
Sun 09:49:00 PM 30.3466 -134.5947 250° West  Level FlightAware Approximate
Sun 09:50:00 PM 30.3076 -134.7170 250° West  Level FlightAware Approximate
Sun 09:51:00 PM 30.2685 -134.8392 250° West  Level FlightAware Approximate
Sun 09:52:00 PM 30.2293 -134.9613 250° West  Level FlightAware Approximate
Sun 09:53:00 PM 30.1901 -135.0833 250° West  Level FlightAware Approximate
Sun 09:54:00 PM 30.1506 -135.2052 250° West  Level FlightAware Approximate
Sun 09:55:00 PM 30.1111 -135.3271 249° West  Level FlightAware Approximate
Sun 09:56:00 PM 30.0715 -135.4488 249° West  Level FlightAware Approximate
Sun 09:57:00 PM 30.0317 -135.5704 249° West  Level FlightAware Approximate
Sun 09:58:00 PM 29.9919 -135.6919 249° West  Level FlightAware Approximate
Sun 09:59:00 PM 29.9519 -135.8134 249° West  Level FlightAware Approximate
Sun 10:00:00 PM 29.9118 -135.9347 249° West  Level FlightAware Approximate
Sun 10:01:00 PM 29.8716 -136.0559 249° West  Level FlightAware Approximate
Sun 10:02:00 PM 29.8313 -136.1770 249° West  Level FlightAware Approximate
Sun 10:03:00 PM 29.7909 -136.2981 249° West  Level FlightAware Approximate
Sun 10:04:00 PM 29.7504 -136.4190 249° West  Level FlightAware Approximate
Sun 10:05:00 PM 29.7097 -136.5399 249° West  Level FlightAware Approximate
Sun 10:06:00 PM 29.6690 -136.6606 249° West  Level FlightAware Approximate
Sun 10:07:00 PM 29.6281 -136.7812 249° West  Level FlightAware Approximate
Sun 10:08:00 PM 29.5872 -136.9018 249° West  Level FlightAware Approximate
Sun 10:09:00 PM 29.5461 -137.0222 249° West  Level FlightAware Approximate
Sun 10:10:00 PM 29.5049 -137.1426 249° West  Level FlightAware Approximate
Sun 10:11:00 PM 29.4636 -137.2628 249° West  Level FlightAware Approximate
Sun 10:12:00 PM 29.4222 -137.3830 248° West  Level FlightAware Approximate
Sun 10:13:00 PM 29.3807 -137.5030 248° West  Level FlightAware Approximate
Sun 10:14:00 PM 29.3391 -137.6230 248° West  Level FlightAware Approximate
Sun 10:15:00 PM 29.2974 -137.7428 248° West  Level FlightAware Approximate
Sun 10:16:00 PM 29.2556 -137.8626 248° West  Level FlightAware Approximate
Sun 10:17:00 PM 29.2136 -137.9823 248° West  Level FlightAware Approximate
Sun 10:18:00 PM 29.1716 -138.1018 248° West  Level FlightAware Approximate
Sun 10:19:00 PM 29.1294 -138.2213 248° West  Level FlightAware Approximate
Sun 10:20:00 PM 29.0872 -138.3407 248° West  Level FlightAware Approximate
Sun 10:21:00 PM 29.0448 -138.4599 248° West  Level FlightAware Approximate
Sun 10:22:00 PM 29.0024 -138.5791 248° West  Level FlightAware Approximate
Sun 10:23:00 PM 28.9598 -138.6982 248° West  Level FlightAware Approximate
Sun 10:24:00 PM 28.9171 -138.8172 248° West  Level FlightAware Approximate
Sun 10:25:00 PM 28.8744 -138.9360 248° West  Level FlightAware Approximate
Sun 10:26:00 PM 28.8315 -139.0548 248° West  Level FlightAware Approximate
Sun 10:27:00 PM 28.7885 -139.1735 248° West  Level FlightAware Approximate
Sun 10:28:00 PM 28.7454 -139.2921 248° West  Level FlightAware Approximate
Sun 10:29:00 PM 28.7022 -139.4106 247° West  Level FlightAware Approximate
Sun 10:30:00 PM 28.6584 -139.5287 247° West  Level FlightAware Approximate
Sun 10:31:00 PM 28.6145 -139.6468 247° West  Level FlightAware Approximate
Sun 10:32:00 PM 28.5705 -139.7647 247° West  Level FlightAware Approximate
Sun 10:33:00 PM 28.5264 -139.8826 247° West  Level FlightAware Approximate
Sun 10:34:00 PM 28.4822 -140.0003 247° West  Level FlightAware Approximate
Sun 10:35:00 PM 28.4379 -140.1180 247° West  Level FlightAware Approximate
Sun 10:36:00 PM 28.3934 -140.2355 247° West  Level FlightAware Approximate
Sun 10:37:00 PM 28.3489 -140.3530 247° West  Level FlightAware Approximate
Sun 10:38:00 PM 28.3043 -140.4703 247° West  Level FlightAware Approximate
Sun 10:39:00 PM 28.2596 -140.5876 247° West  Level FlightAware Approximate
Sun 10:40:00 PM 28.2148 -140.7047 247° West  Level FlightAware Approximate
Sun 10:41:00 PM 28.1698 -140.8218 246° West  Level FlightAware Approximate
Sun 10:42:00 PM 28.1248 -140.9388 246° West  Level FlightAware Approximate
Sun 10:43:00 PM 28.0797 -141.0556 246° West  Level FlightAware Approximate
Sun 10:44:00 PM 28.0345 -141.1724 246° West  Level FlightAware Approximate
Sun 10:45:00 PM 27.9892 -141.2890 246° West  Level FlightAware Approximate
Sun 10:46:00 PM 27.9438 -141.4056 246° West  Level FlightAware Approximate
Sun 10:47:00 PM 27.8983 -141.5221 246° West  Level FlightAware Approximate
Sun 10:48:00 PM 27.8526 -141.6385 246° West  Level FlightAware Approximate
Sun 10:49:00 PM 27.8069 -141.7547 246° West  Level FlightAware Approximate
Sun 10:50:00 PM 27.7611 -141.8709 246° West  Level FlightAware Approximate
Sun 10:51:00 PM 27.7153 -141.9870 246° West  Level FlightAware Approximate
Sun 10:52:00 PM 27.6701 -142.1034 246° West  Level FlightAware Approximate
Sun 10:53:00 PM 27.6248 -142.2197 246° West  Level FlightAware Approximate
Sun 10:54:00 PM 27.5794 -142.3359 246° West  Level FlightAware Approximate
Sun 10:55:00 PM 27.5339 -142.4520 246° West  Level FlightAware Approximate
Sun 10:56:00 PM 27.4883 -142.5680 246° West  Level FlightAware Approximate
Sun 10:57:00 PM 27.4427 -142.6839 246° West  Level FlightAware Approximate
Sun 10:58:00 PM 27.3969 -142.7997 246° West  Level FlightAware Approximate
Sun 10:59:00 PM 27.3510 -142.9154 246° West  Level FlightAware Approximate
Sun 11:00:00 PM 27.3051 -143.0310 246° West  Level FlightAware Approximate
Sun 11:01:00 PM 27.2590 -143.1465 246° West  Level FlightAware Approximate
Sun 11:02:00 PM 27.2129 -143.2619 246° West  Level FlightAware Approximate
Sun 11:03:00 PM 27.1666 -143.3773 246° West  Level FlightAware Approximate
Sun 11:04:00 PM 27.1203 -143.4925 246° West  Level FlightAware Approximate
Sun 11:05:00 PM 27.0739 -143.6076 246° West  Level FlightAware Approximate
Sun 11:06:00 PM 27.0268 -143.7224 245° Southwest  Level FlightAware Approximate
Sun 11:07:00 PM 26.9791 -143.8368 245° Southwest  Level FlightAware Approximate
Sun 11:08:00 PM 26.9313 -143.9511 245° Southwest  Level FlightAware Approximate
Sun 11:09:00 PM 26.8835 -144.0653 245° Southwest  Level FlightAware Approximate
Sun 11:10:00 PM 26.8355 -144.1794 245° Southwest  Level FlightAware Approximate
Sun 11:11:00 PM 26.7874 -144.2934 245° Southwest  Level FlightAware Approximate
Sun 11:12:00 PM 26.7393 -144.4073 245° Southwest  Level FlightAware Approximate
Sun 11:13:00 PM 26.6913 -144.5212 245° Southwest  Level FlightAware Approximate
Sun 11:14:00 PM 26.6441 -144.6355 245° Southwest  Level FlightAware Approximate
Sun 11:15:00 PM 26.5968 -144.7498 245° Southwest  Level FlightAware Approximate
Sun 11:16:00 PM 26.5495 -144.8639 245° Southwest  Level FlightAware Approximate
Sun 11:17:00 PM 26.5021 -144.9780 245° Southwest  Level FlightAware Approximate
Sun 11:18:00 PM 26.4546 -145.0919 245° Southwest  Level FlightAware Approximate
Sun 11:19:00 PM 26.4069 -145.2058 245° Southwest  Level FlightAware Approximate
Sun 11:20:00 PM 26.3592 -145.3196 245° Southwest  Level FlightAware Approximate
Sun 11:21:00 PM 26.3115 -145.4332 245° Southwest  Level FlightAware Approximate
Sun 11:22:00 PM 26.2636 -145.5468 245° Southwest  Level FlightAware Approximate
Sun 11:23:00 PM 26.2156 -145.6603 245° Southwest  Level FlightAware Approximate
Sun 11:24:00 PM 26.1675 -145.7737 245° Southwest  Level FlightAware Approximate
Sun 11:25:00 PM 26.1194 -145.8870 245° Southwest  Level FlightAware Approximate
Sun 11:26:00 PM 26.0712 -146.0002 245° Southwest  Level FlightAware Approximate
Sun 11:27:00 PM 26.0229 -146.1133 245° Southwest  Level FlightAware Approximate
Sun 11:28:00 PM 25.9742 -146.2262 244° Southwest  Level FlightAware Approximate
Sun 11:29:00 PM 25.9252 -146.3388 244° Southwest  Level FlightAware Approximate
Sun 11:30:00 PM 25.8762 -146.4514 244° Southwest  Level FlightAware Approximate
Sun 11:31:00 PM 25.8270 -146.5639 244° Southwest  Level FlightAware Approximate
Sun 11:32:00 PM 25.7778 -146.6763 244° Southwest  Level FlightAware Approximate
Sun 11:33:00 PM 25.7285 -146.7886 244° Southwest  Level FlightAware Approximate
Sun 11:34:00 PM 25.6791 -146.9008 244° Southwest  Level FlightAware Approximate
Sun 11:35:00 PM 25.6296 -147.0129 244° Southwest  Level FlightAware Approximate
Sun 11:36:00 PM 25.5799 -147.1249 244° Southwest  Level FlightAware Approximate
Sun 11:37:00 PM 25.5302 -147.2368 244° Southwest  Level FlightAware Approximate
Sun 11:38:00 PM 25.4804 -147.3486 244° Southwest  Level FlightAware Approximate
Sun 11:39:00 PM 25.4306 -147.4603 244° Southwest  Level FlightAware Approximate
Sun 11:40:00 PM 25.3806 -147.5719 244° Southwest  Level FlightAware Approximate
Sun 11:41:00 PM 25.3306 -147.6835 244° Southwest  Level FlightAware Approximate
Sun 11:42:00 PM 25.2804 -147.7949 244° Southwest  Level FlightAware Approximate
Sun 11:43:00 PM 25.2302 -147.9062 244° Southwest  Level FlightAware Approximate
Sun 11:44:00 PM 25.1799 -148.0175 243° Southwest  Level FlightAware Approximate
Sun 11:45:00 PM 25.1296 -148.1286 243° Southwest  Level FlightAware Approximate
Sun 11:46:00 PM 25.0791 -148.2397 243° Southwest  Level FlightAware Approximate
Sun 11:47:00 PM 25.0285 -148.3507 243° Southwest  Level FlightAware Approximate
Sun 11:48:00 PM 24.9779 -148.4616 243° Southwest  Level FlightAware Approximate
Sun 11:49:00 PM 24.9272 -148.5724 243° Southwest  Level FlightAware Approximate
Sun 11:50:00 PM 24.8764 -148.6831 243° Southwest  Level FlightAware Approximate
Sun 11:51:00 PM 24.8256 -148.7937 243° Southwest  Level FlightAware Approximate
Sun 11:52:00 PM 24.7746 -148.9042 243° Southwest  Level FlightAware Approximate
Sun 11:53:00 PM 24.7236 -149.0146 243° Southwest  Level FlightAware Approximate
Sun 11:54:00 PM 24.6725 -149.1250 243° Southwest  Level FlightAware Approximate
Sun 11:55:00 PM 24.6213 -149.2352 243° Southwest  Level FlightAware Approximate
Sun 11:56:00 PM 24.5700 -149.3454 243° Southwest  Level FlightAware Approximate
Sun 11:57:00 PM 24.5186 -149.4555 243° Southwest  Level FlightAware Approximate
Sun 11:58:00 PM 24.4672 -149.5654 243° Southwest  Level FlightAware Approximate
Sun 11:59:00 PM 24.4157 -149.6753 243° Southwest  Level FlightAware Approximate
Mon 12:00:00 AM 24.3641 -149.7851 243° Southwest  Level FlightAware Approximate
Mon 12:01:00 AM 24.3124 -149.8948 243° Southwest  Level FlightAware Approximate
Mon 12:02:00 AM 24.2607 -150.0045 243° Southwest  Level FlightAware Approximate
Mon 12:03:00 AM 24.2088 -150.1140 243° Southwest  Level FlightAware Approximate
Mon 12:04:00 AM 24.1569 -150.2234 243° Southwest  Level FlightAware Approximate
Mon 12:05:00 AM 24.1049 -150.3328 243° Southwest  Level FlightAware Approximate
Mon 12:06:00 AM 24.0529 -150.4420 242° Southwest  Level FlightAware Approximate
Mon 12:07:00 AM 24.0007 -150.5512 242° Southwest  Level FlightAware Approximate
Mon 12:08:00 AM 23.9485 -150.6603 242° Southwest  Level FlightAware Approximate
Mon 12:09:00 AM 23.8962 -150.7693 242° Southwest  Level FlightAware Approximate
Mon 12:10:00 AM 23.8438 -150.8782 242° Southwest  Level FlightAware Approximate
Mon 12:11:00 AM 23.7914 -150.9870 242° Southwest  Level FlightAware Approximate
Mon 12:12:00 AM 23.7389 -151.0958 242° Southwest  Level FlightAware Approximate
Mon 12:13:00 AM 23.6863 -151.2044 242° Southwest  Level FlightAware Approximate
Mon 12:14:00 AM 23.6336 -151.3130 242° Southwest  Level FlightAware Approximate
Mon 12:15:00 AM 23.5808 -151.4215 242° Southwest  Level FlightAware Approximate
Mon 12:16:00 AM 23.5280 -151.5298 242° Southwest  Level FlightAware Approximate
Mon 12:17:00 AM 23.4751 -151.6382 242° Southwest  Level FlightAware Approximate
Mon 12:18:00 AM 23.4221 -151.7464 242° Southwest  Level FlightAware Approximate
Mon 12:19:00 AM 23.3691 -151.8545 242° Southwest  Level FlightAware Approximate
Mon 12:20:00 AM 23.3160 -151.9625 242° Southwest  Level FlightAware Approximate
Mon 12:21:00 AM 23.2628 -152.0705 242° Southwest  Level FlightAware Approximate
Mon 12:22:00 AM 23.2095 -152.1783 242° Southwest  Level FlightAware Approximate
Mon 12:23:00 AM 23.1561 -152.2861 242° Southwest  Level FlightAware Approximate
Mon 12:24:00 AM 23.1027 -152.3938 242° Southwest  Level FlightAware Approximate
Mon 12:25:00 AM 23.0492 -152.5014 242° Southwest  Level FlightAware Approximate
Mon 12:26:00 AM 22.9955 -152.6089 241° Southwest  Level FlightAware Approximate
Mon 12:27:00 AM 22.9412 -152.7159 241° Southwest  Level FlightAware Approximate
Mon 12:28:00 AM 22.8868 -152.8228 241° Southwest  Level FlightAware Approximate
Mon 12:29:00 AM 22.8324 -152.9297 241° Southwest  Level FlightAware Approximate
Mon 12:30:00 AM 22.7778 -153.0365 241° Southwest  Level FlightAware Approximate
Mon 12:31:00 AM 22.7232 -153.1432 241° Southwest  Level FlightAware Approximate
Mon 12:32:00 AM 22.6686 -153.2498 241° Southwest  Level FlightAware Approximate
Mon 12:33:00 AM 22.6138 -153.3563 241° Southwest  Level FlightAware Approximate
Mon 12:34:00 AM 22.5590 -153.4628 241° Southwest  Level FlightAware Approximate
Mon 12:35:00 AM 22.5041 -153.5691 241° Southwest  Level FlightAware Approximate
Mon 12:36:00 AM 22.4492 -153.6754 241° Southwest  Level FlightAware Approximate
Mon 12:37:00 AM 22.3942 -153.7816 241° Southwest  Level FlightAware Approximate
Mon 12:38:00 AM 22.3506 -153.8908 271° West  Level FlightAware Approximate
Mon 12:39:00 AM 22.3534 -154.0124 271° West  Level FlightAware Approximate
Mon 12:40:00 AM 22.3561 -154.1340 271° West  Level FlightAware Approximate
Mon 12:41:00 AM 22.3588 -154.2557 271° West  Level FlightAware Approximate
Mon 12:42:00 AM 22.3613 -154.3773 271° West  Level FlightAware Approximate
Mon 12:43:00 AM 22.3638 -154.4989 271° West  Level FlightAware Approximate
Mon 12:44:00 AM 22.3662 -154.6206 271° West  Level FlightAware Approximate
Mon 12:45:00 AM 22.3685 -154.7423 271° West  Level FlightAware Approximate
Mon 12:46:00 AM 22.3707 -154.8639 271° West  Level FlightAware Approximate
Mon 12:47:00 AM 22.3728 -154.9856 271° West  Level FlightAware Approximate
Mon 12:48:00 AM 22.3748 -155.1073 271° West  Level FlightAware Approximate
Mon 12:49:00 AM 22.3767 -155.2289 271° West  Level FlightAware Approximate
Mon 12:50:00 AM 22.3786 -155.3506 271° West  Level FlightAware Approximate
Mon 12:51:00 AM 22.3803 -155.4723 271° West  Level FlightAware Approximate
Mon 12:52:00 AM 22.3820 -155.5939 271° West  Level FlightAware Approximate
Mon 12:53:00 AM 22.3833 -155.7156 270° West  Level FlightAware Approximate
Mon 12:54:00 AM 22.3834 -155.8373 270° West  Level FlightAware Approximate
Mon 12:55:00 AM 22.3834 -155.9590 270° West  Level FlightAware Approximate
Mon 12:56:00 AM 22.3834 -156.0807 270° West  Level FlightAware Approximate
Mon 12:57:00 AM 22.3833 -156.2024 270° West  Level FlightAware Approximate
Mon 12:58:00 AM 22.3359 -156.3077 231° Southwest  Level FlightAware Approximate
Mon 12:59:00 AM 22.2643 -156.4016 230° Southwest  Level FlightAware Approximate
Mon 01:00:00 AM 22.1924 -156.4950 230° Southwest  Level FlightAware Approximate
Mon 01:01:00 AM 22.1229 -156.5906 234° Southwest  Level FlightAware Approximate
Mon 01:02:00 AM 22.0486 -156.6817 228° Southwest  Level FlightAware Approximate
Mon 01:03:00 AM 21.9810 -156.7785 234° Southwest  Level FlightAware Approximate
Mon 01:04:00 AM 21.9058 -156.8685 226° Southwest  Level FlightAware Approximate
Mon 01:05:00 AM 21.8286 -156.9567 232° Southwest  Level FlightAware Approximate
Mon 01:06:00 AM 21.7600 -157.0527 232° Southwest  Level FlightAware Approximate
Mon 01:06:05 AM 21.4240 -157.4860 232° Southwest 368 423 13,800  Level FlightAware ADS-B
Mon 01:07:00 AM 21.6914 -157.1487 232° Southwest  Level FlightAware Approximate
Mon 01:07:35 AM 21.3800 -157.6220 251° West 301 346 10,100  Level FlightAware ADS-B
Mon 01:08:00 AM 21.3680 -157.6590 251° West 270 311 9,800 -960 Descending FlightAware ADS-B
Mon 01:08:25 AM 21.3580 -157.6860 248° West 270 311 9,300 -1,400 Descending FlightAware ADS-B
Mon 01:09:00 AM 21.3400 -157.7340 248° West 264 304 8,400 -1,300 Descending FlightAware ADS-B
Mon 01:09:25 AM 21.3300 -157.7610 248° West 262 302 8,000 -343 Descending FlightAware ADS-B
Mon 01:10:10 AM 21.3120 -157.8130 250° West 255 293 8,000 -92 Level FlightAware ADS-B
Mon 01:10:30 AM 21.3010 -157.8420 248° West 252 290 7,900 -150 Descending FlightAware ADS-B
Mon 01:10:50 AM 21.2930 -157.8630 248° West 231 266 7,900 -360 Level FlightAware ADS-B
Mon 01:11:20 AM 21.2810 -157.8920 246° West 219 252 7,600 -900 Descending FlightAware ADS-B
Mon 01:11:30 AM 21.2730 -157.9010 226° Southwest 221 254 7,300 -1,350 Descending FlightAware ADS-B
Mon 01:12:00 AM 21.2520 -157.9220 223° Southwest 220 253 6,700 -1,200 Descending FlightAware ADS-B
Mon 01:12:30 AM 21.2290 -157.9450 223° Southwest 218 251 6,100 -600 Descending FlightAware ADS-B
Mon 01:13:00 AM 21.2090 -157.9640 222° Southwest 218 251 6,100 -923 Level FlightAware ADS-B
Mon 01:13:35 AM 21.1840 -157.9920 226° Southwest 218 251 5,100 -1,714 Descending FlightAware ADS-B
Mon 01:16:00 AM 21.3187 -157.9224 26° Northeast  Level Estimated
Mon 01:17:00 AM 21.3187 -157.9224 43° Northeast  Level Estimated
Mon 01:18:00 AM 21.3187 -157.9224 43° Northeast  Level Estimated
Mon 01:19:00 AM 21.3187 -157.9224 43° Northeast  Level Estimated
Mon 01:20:00 AM 21.3187 -157.9224 43° Northeast  Level Estimated

Login

Don't have an account? Register now (free) for customized features, flight alerts, and more!